createdAt,value
2023-03-21T00:01:51.555Z,53.18
2023-03-21T00:04:18.776Z,53.10
2023-03-21T00:06:46.621Z,53.11
2023-03-21T00:09:13.756Z,53.09
2023-03-21T00:11:41.119Z,53.03
2023-03-21T00:14:09.043Z,52.93
2023-03-21T00:16:38.046Z,52.96
2023-03-21T00:19:07.529Z,52.86
2023-03-21T00:21:55.537Z,52.81
2023-03-21T00:24:25.532Z,52.75
2023-03-21T00:26:53.680Z,52.77
2023-03-21T00:29:21.126Z,52.88
2023-03-21T00:31:48.446Z,52.81
2023-03-21T00:34:17.695Z,52.81
2023-03-21T00:36:50.774Z,52.87
2023-03-21T00:39:17.941Z,52.82
2023-03-21T00:41:45.265Z,52.61
2023-03-21T00:44:16.169Z,52.71
2023-03-21T00:47:04.456Z,52.78
2023-03-21T00:49:34.280Z,52.79
2023-03-21T00:52:17.058Z,52.83
2023-03-21T00:54:47.701Z,52.67
2023-03-21T00:57:15.084Z,52.83
2023-03-21T00:59:42.384Z,52.78
2023-03-21T01:02:14.950Z,52.72
2023-03-21T01:04:42.500Z,52.66
2023-03-21T01:07:10.846Z,52.96
2023-03-21T01:09:39.033Z,52.69
2023-03-21T01:12:06.449Z,52.53
2023-03-21T01:14:33.659Z,52.67
2023-03-21T01:17:00.968Z,52.80
2023-03-21T01:19:40.947Z,52.58
2023-03-21T01:22:16.138Z,52.73
2023-03-21T01:24:53.877Z,52.53
2023-03-21T01:27:24.113Z,52.48
2023-03-21T01:29:51.597Z,52.75
2023-03-21T01:32:18.852Z,52.67
2023-03-21T01:34:46.133Z,52.62
2023-03-21T01:37:14.499Z,52.57
2023-03-21T01:39:47.191Z,52.70
2023-03-21T01:42:15.017Z,52.69
2023-03-21T01:45:01.727Z,52.45
2023-03-21T01:47:43.688Z,52.50
2023-03-21T01:50:27.106Z,52.54
2023-03-21T01:53:17.064Z,52.86
2023-03-21T01:55:44.371Z,52.33
2023-03-21T01:58:27.694Z,52.64
2023-03-21T02:01:06.495Z,52.87
2023-03-21T02:03:51.229Z,52.59
2023-03-21T02:06:57.386Z,52.53
2023-03-21T02:09:46.611Z,52.46
2023-03-21T02:12:18.771Z,52.50
2023-03-21T02:14:49.601Z,52.57
2023-03-21T02:17:47.329Z,52.49
2023-03-21T02:20:44.059Z,52.58
2023-03-21T02:23:30.099Z,52.60
2023-03-21T02:26:19.164Z,52.50
2023-03-21T02:28:53.800Z,52.65
2023-03-21T02:32:00.857Z,52.48
2023-03-21T02:34:46.276Z,52.44
2023-03-21T02:37:36.760Z,52.47
2023-03-21T02:40:15.397Z,52.50
2023-03-21T02:42:51.643Z,52.52
2023-03-21T02:45:30.626Z,52.59
2023-03-21T02:48:06.903Z,52.46
2023-03-21T02:50:48.504Z,52.43
2023-03-21T02:53:23.672Z,52.49
2023-03-21T02:55:53.563Z,52.54
2023-03-21T02:58:25.542Z,52.55
2023-03-21T03:00:57.771Z,52.38
2023-03-21T03:03:35.930Z,52.34
2023-03-21T03:06:17.157Z,52.34
2023-03-21T03:09:01.791Z,52.24
2023-03-21T03:11:44.988Z,52.38
2023-03-21T03:14:56.406Z,52.29
2023-03-21T03:17:41.410Z,52.28
2023-03-21T03:20:18.022Z,52.26
2023-03-21T03:22:57.612Z,52.33
2023-03-21T03:25:42.852Z,52.33
2023-03-21T03:28:17.347Z,52.27
2023-03-21T03:31:01.127Z,52.39
2023-03-21T03:33:41.688Z,52.32
2023-03-21T03:36:21.444Z,52.33
2023-03-21T03:38:57.950Z,52.28
2023-03-21T03:41:29.353Z,52.30
2023-03-21T03:44:02.350Z,52.37
2023-03-21T03:46:48.146Z,52.49
2023-03-21T03:49:21.145Z,52.31
2023-03-21T03:52:20.409Z,52.45
2023-03-21T03:54:58.664Z,52.56
2023-03-21T03:57:27.660Z,52.51
2023-03-21T03:59:56.275Z,52.59
2023-03-21T04:02:45.283Z,52.61
2023-03-21T04:05:21.203Z,52.49
2023-03-21T04:07:51.147Z,52.63
2023-03-21T04:10:22.748Z,52.53
2023-03-21T04:12:50.481Z,52.45
2023-03-21T04:15:26.111Z,52.61
2023-03-21T04:17:59.487Z,52.75
2023-03-21T04:20:36.598Z,52.75
2023-03-21T04:23:06.154Z,52.51
2023-03-21T04:25:36.899Z,52.62
2023-03-21T04:28:06.691Z,52.68
2023-03-21T04:30:58.934Z,52.63
2023-03-21T04:33:28.748Z,52.53
2023-03-21T04:35:59.214Z,52.72
2023-03-21T04:38:30.905Z,52.62
2023-03-21T04:41:03.211Z,52.81
2023-03-21T04:43:32.179Z,52.63
2023-03-21T04:45:59.715Z,52.56
2023-03-21T04:48:28.026Z,52.71
2023-03-21T04:50:56.516Z,52.62
2023-03-21T04:53:23.924Z,52.63
2023-03-21T04:55:54.880Z,52.72
2023-03-21T04:58:24.130Z,52.61
2023-03-21T05:00:53.182Z,52.68
2023-03-21T05:03:22.017Z,52.61
2023-03-21T05:05:49.673Z,52.66
2023-03-21T05:08:19.351Z,52.52
2023-03-21T05:10:46.650Z,52.57
2023-03-21T05:13:14.073Z,52.52
2023-03-21T05:15:41.326Z,52.56
2023-03-21T05:18:11.588Z,52.41
2023-03-21T05:20:54.209Z,52.45
2023-03-21T05:23:22.764Z,52.54
2023-03-21T05:25:51.169Z,52.41
2023-03-21T05:28:36.957Z,52.43
2023-03-21T05:31:05.722Z,52.34
2023-03-21T05:33:33.381Z,52.43
2023-03-21T05:36:00.942Z,52.34
2023-03-21T05:38:31.631Z,52.43
2023-03-21T05:40:59.899Z,52.24
2023-03-21T05:43:27.519Z,52.49
2023-03-21T05:45:55.327Z,52.26
2023-03-21T05:48:24.230Z,52.35
2023-03-21T05:51:08.046Z,52.08
2023-03-21T05:53:35.842Z,52.24
2023-03-21T05:56:03.178Z,52.16
2023-03-21T05:58:42.968Z,52.17
2023-03-21T06:01:10.959Z,52.17
2023-03-21T06:03:42.014Z,52.07
2023-03-21T06:06:27.404Z,52.07
2023-03-21T06:09:00.907Z,52.00
2023-03-21T06:11:32.092Z,51.96
2023-03-21T06:14:20.907Z,52.01
2023-03-21T06:17:06.012Z,52.05
2023-03-21T06:19:35.168Z,51.95
2023-03-21T06:22:13.089Z,52.04
2023-03-21T06:24:41.861Z,51.95
2023-03-21T06:27:09.157Z,52.12
2023-03-21T06:29:51.628Z,52.05
2023-03-21T06:32:19.310Z,52.02
2023-03-21T06:34:48.636Z,52.03
2023-03-21T06:37:16.468Z,51.84
2023-03-21T06:39:43.949Z,51.94
2023-03-21T06:42:12.187Z,51.92
2023-03-21T06:44:39.848Z,51.99
2023-03-21T06:47:12.158Z,51.95
2023-03-21T06:49:42.921Z,52.12
2023-03-21T06:52:12.415Z,51.96
2023-03-21T06:54:40.441Z,51.91
2023-03-21T06:57:13.517Z,51.92
2023-03-21T06:59:44.089Z,51.86
2023-03-21T07:02:16.017Z,51.80
2023-03-21T07:04:50.902Z,51.73
2023-03-21T07:07:26.223Z,51.66
2023-03-21T07:09:53.472Z,51.76
2023-03-21T07:12:21.976Z,51.62
2023-03-21T07:15:08.324Z,51.77
2023-03-21T07:17:37.093Z,51.74
2023-03-21T07:20:08.050Z,51.75
2023-03-21T07:22:36.207Z,51.65
2023-03-21T07:25:05.648Z,51.75
2023-03-21T07:27:40.880Z,51.85
2023-03-21T07:30:10.217Z,51.86
2023-03-21T07:32:38.212Z,51.88
2023-03-21T07:35:12.540Z,51.79
2023-03-21T07:37:40.525Z,52.04
2023-03-21T07:40:10.732Z,51.84
2023-03-21T07:42:40.956Z,52.12
2023-03-21T07:45:14.692Z,52.03
2023-03-21T07:47:42.192Z,52.25
2023-03-21T07:50:10.024Z,51.26
2023-03-21T07:52:37.359Z,50.39
2023-03-21T07:55:05.328Z,50.21
2023-03-21T07:57:32.633Z,50.69
2023-03-21T07:59:59.936Z,50.52
2023-03-21T08:02:27.484Z,51.06
2023-03-21T08:04:54.832Z,51.10
2023-03-21T08:07:22.367Z,51.38
2023-03-21T08:09:49.732Z,51.30
2023-03-21T08:12:17.054Z,51.27
2023-03-21T08:14:44.537Z,51.38
2023-03-21T08:17:11.870Z,51.39
2023-03-21T08:19:39.208Z,51.36
2023-03-21T08:22:06.953Z,51.42
2023-03-21T08:24:34.427Z,51.53
2023-03-21T08:27:02.167Z,51.54
2023-03-21T08:29:29.579Z,51.53
2023-03-21T08:31:58.089Z,51.56
2023-03-21T08:34:26.682Z,51.61
2023-03-21T08:36:54.681Z,51.56
2023-03-21T08:39:22.513Z,51.48
2023-03-21T08:41:49.801Z,51.64
2023-03-21T08:44:17.184Z,51.71
2023-03-21T08:46:44.573Z,51.66
2023-03-21T08:49:12.635Z,51.50
2023-03-21T08:51:41.229Z,51.54
2023-03-21T08:54:17.310Z,51.49
2023-03-21T08:56:44.624Z,51.60
2023-03-21T08:59:11.946Z,51.56
2023-03-21T09:01:39.569Z,51.48
2023-03-21T09:04:10.765Z,51.52
2023-03-21T09:06:41.033Z,51.44
2023-03-21T09:09:09.427Z,51.49
2023-03-21T09:11:36.834Z,51.37
2023-03-21T09:14:34.769Z,51.32
2023-03-21T09:17:02.419Z,51.39
2023-03-21T09:19:30.444Z,51.40
2023-03-21T09:21:57.910Z,51.26
2023-03-21T09:24:26.445Z,51.22
2023-03-21T09:26:53.847Z,51.28
2023-03-21T09:29:21.537Z,51.25
2023-03-21T09:31:49.836Z,51.38
2023-03-21T09:34:17.197Z,51.28
2023-03-21T09:36:44.816Z,51.20
2023-03-21T09:39:12.800Z,51.26
2023-03-21T09:42:12.215Z,50.88
2023-03-21T09:44:46.135Z,50.98
2023-03-21T09:47:19.752Z,51.18
2023-03-21T09:49:56.878Z,51.02
2023-03-21T09:53:05.831Z,51.00
2023-03-21T09:55:36.656Z,50.90
2023-03-21T09:58:14.418Z,50.90
2023-03-21T10:00:47.505Z,51.02
2023-03-21T10:03:26.295Z,50.99
2023-03-21T10:05:58.779Z,50.91
2023-03-21T10:08:36.613Z,51.08
2023-03-21T10:11:12.712Z,51.05
2023-03-21T10:13:46.678Z,51.02
2023-03-21T10:16:17.629Z,51.01
2023-03-21T10:18:46.934Z,50.93
2023-03-21T10:21:56.394Z,50.91
2023-03-21T10:24:26.958Z,50.94
2023-03-21T10:26:56.066Z,50.90
2023-03-21T10:29:37.172Z,50.92
2023-03-21T10:32:06.386Z,50.92
2023-03-21T10:34:40.063Z,51.03
2023-03-21T10:37:08.108Z,50.98
2023-03-21T10:39:40.353Z,50.67
2023-03-21T10:42:25.355Z,50.95
2023-03-21T10:44:55.264Z,50.90
2023-03-21T10:47:27.462Z,50.94
2023-03-21T10:50:11.041Z,50.88
2023-03-21T10:52:45.565Z,50.92
2023-03-21T10:55:25.799Z,50.90
2023-03-21T10:57:57.703Z,51.02
2023-03-21T11:00:29.794Z,50.99
2023-03-21T11:02:58.346Z,50.89
2023-03-21T11:05:33.797Z,50.86
2023-03-21T11:08:06.976Z,50.93
2023-03-21T11:10:51.265Z,50.87
2023-03-21T11:13:40.814Z,50.82
2023-03-21T11:16:22.700Z,50.84
2023-03-21T11:18:51.815Z,50.91
2023-03-21T11:21:21.697Z,50.95
2023-03-21T11:23:51.785Z,50.84
2023-03-21T11:26:32.929Z,50.86
2023-03-21T11:29:01.179Z,50.85
2023-03-21T11:31:40.181Z,50.86
2023-03-21T11:34:09.343Z,50.88
2023-03-21T11:36:41.773Z,50.78
2023-03-21T11:39:11.814Z,50.94
2023-03-21T11:41:41.116Z,50.48
2023-03-21T11:44:26.532Z,50.49
2023-03-21T11:46:54.452Z,50.63
2023-03-21T11:49:23.266Z,50.82
2023-03-21T11:52:08.458Z,50.71
2023-03-21T11:54:44.308Z,50.73
2023-03-21T11:57:44.101Z,50.86
2023-03-21T12:00:25.970Z,50.83
2023-03-21T12:03:19.621Z,50.81
2023-03-21T12:05:52.965Z,50.87
2023-03-21T12:09:01.721Z,50.75
2023-03-21T12:11:52.616Z,50.91
2023-03-21T12:14:27.379Z,50.83
2023-03-21T12:17:31.782Z,50.79
2023-03-21T12:20:14.386Z,50.91
2023-03-21T12:22:54.624Z,50.49
2023-03-21T12:25:29.064Z,50.66
2023-03-21T12:28:32.443Z,50.20
2023-03-21T12:31:09.183Z,50.18
2023-03-21T12:33:57.579Z,50.47
2023-03-21T12:36:31.001Z,50.43
2023-03-21T12:39:16.982Z,50.66
2023-03-21T12:41:52.934Z,50.76
2023-03-21T12:44:26.357Z,50.67
2023-03-21T12:47:13.447Z,50.89
2023-03-21T12:50:09.976Z,50.71
2023-03-21T12:52:41.634Z,50.93
2023-03-21T12:55:47.422Z,51.04
2023-03-21T12:58:24.398Z,51.12
2023-03-21T13:00:54.308Z,51.27
2023-03-21T13:03:45.357Z,51.38
2023-03-21T13:06:18.357Z,51.57
2023-03-21T13:08:58.160Z,51.86
2023-03-21T13:11:29.189Z,52.39
2023-03-21T13:14:05.465Z,52.30
2023-03-21T13:16:39.119Z,52.76
2023-03-21T13:19:09.198Z,52.73
2023-03-21T13:21:40.623Z,52.58
2023-03-21T13:24:19.969Z,52.42
2023-03-21T13:26:57.876Z,52.55
2023-03-21T13:29:44.388Z,52.46
2023-03-21T13:32:30.861Z,52.54
2023-03-21T13:35:21.156Z,52.64
2023-03-21T13:37:57.190Z,52.72
2023-03-21T13:40:57.198Z,52.27
2023-03-21T13:43:39.397Z,52.75
2023-03-21T13:46:12.921Z,52.65
2023-03-21T13:49:04.446Z,52.30
2023-03-21T13:51:31.691Z,52.49
2023-03-21T13:54:08.952Z,52.28
2023-03-21T13:57:01.152Z,52.25
2023-03-21T13:59:37.773Z,52.41
2023-03-21T14:02:31.714Z,52.26
2023-03-21T14:05:06.406Z,52.14
2023-03-21T14:07:42.864Z,52.01
2023-03-21T14:10:28.647Z,51.97
2023-03-21T14:12:57.125Z,51.99
2023-03-21T14:15:27.728Z,51.89
2023-03-21T14:17:59.035Z,51.69
2023-03-21T14:20:32.488Z,51.93
2023-03-21T14:23:00.083Z,51.81
2023-03-21T14:25:40.932Z,51.68
2023-03-21T14:28:18.870Z,51.55
2023-03-21T14:30:51.601Z,51.64
2023-03-21T14:33:27.206Z,51.53
2023-03-21T14:36:00.887Z,51.32
2023-03-21T14:38:35.729Z,51.54
2023-03-21T14:41:04.190Z,51.58
2023-03-21T14:43:34.218Z,51.86
2023-03-21T14:46:01.613Z,51.36
2023-03-21T14:48:32.066Z,51.49
2023-03-21T14:51:06.014Z,51.50
2023-03-21T14:53:39.964Z,51.46
2023-03-21T14:56:17.054Z,51.40
2023-03-21T14:58:46.177Z,51.35
2023-03-21T15:01:24.981Z,51.42
2023-03-21T15:03:52.712Z,51.45
2023-03-21T15:06:20.297Z,51.46
2023-03-21T15:09:02.784Z,51.30
2023-03-21T15:11:33.811Z,51.38
2023-03-21T15:14:04.286Z,51.45
2023-03-21T15:16:32.365Z,51.19
2023-03-21T15:19:01.873Z,51.10
2023-03-21T15:21:42.252Z,51.11
2023-03-21T15:24:17.136Z,51.05
2023-03-21T15:26:46.527Z,51.17
2023-03-21T15:29:16.265Z,51.13
2023-03-21T15:31:44.774Z,51.19
2023-03-21T15:34:21.224Z,51.24
2023-03-21T15:36:50.919Z,51.29
2023-03-21T15:39:21.588Z,51.29
2023-03-21T15:42:03.859Z,51.41
2023-03-21T15:44:32.269Z,51.24
2023-03-21T15:46:59.949Z,51.43
2023-03-21T15:49:40.343Z,51.31
2023-03-21T15:52:17.043Z,51.95
2023-03-21T15:54:59.434Z,52.68
2023-03-21T15:57:32.802Z,53.05
2023-03-21T16:00:28.020Z,53.15
2023-03-21T16:03:00.909Z,54.19
2023-03-21T16:05:31.535Z,54.32
2023-03-21T16:08:22.959Z,54.16
2023-03-21T16:10:50.243Z,53.99
2023-03-21T16:13:17.824Z,53.62
2023-03-21T16:15:46.935Z,53.48
2023-03-21T16:18:16.190Z,53.53
2023-03-21T16:20:46.125Z,53.31
2023-03-21T16:23:15.002Z,53.30
2023-03-21T16:25:44.102Z,53.08
2023-03-21T16:28:16.530Z,52.89
2023-03-21T16:30:44.942Z,52.93
2023-03-21T16:33:13.355Z,53.36
2023-03-21T16:35:41.270Z,53.42
2023-03-21T16:38:12.473Z,53.23
2023-03-21T16:40:43.512Z,53.26
2023-03-21T16:43:11.453Z,53.26
2023-03-21T16:45:38.801Z,53.30
2023-03-21T16:48:08.753Z,53.01
2023-03-21T16:50:41.338Z,52.88
2023-03-21T16:53:09.552Z,52.84
2023-03-21T16:55:37.770Z,52.77
2023-03-21T16:58:06.241Z,52.81
2023-03-21T17:00:33.901Z,52.88
2023-03-21T17:03:06.582Z,52.75
2023-03-21T17:05:34.036Z,52.51
2023-03-21T17:08:02.563Z,52.58
2023-03-21T17:10:31.761Z,52.58
2023-03-21T17:12:59.772Z,52.60
2023-03-21T17:15:27.122Z,52.44
2023-03-21T17:17:55.835Z,52.41
2023-03-21T17:20:32.559Z,52.31
2023-03-21T17:23:00.286Z,52.27
2023-03-21T17:25:27.816Z,52.40
2023-03-21T17:27:56.328Z,52.42
2023-03-21T17:30:33.406Z,52.34
2023-03-21T17:33:00.742Z,52.32
2023-03-21T17:35:29.008Z,52.39
2023-03-21T17:37:58.617Z,52.23
2023-03-21T17:40:28.794Z,52.58
2023-03-21T17:42:57.290Z,52.50
2023-03-21T17:45:25.361Z,52.48
2023-03-21T17:47:53.045Z,52.47
2023-03-21T17:50:27.216Z,52.30
2023-03-21T17:52:57.358Z,52.28
2023-03-21T17:55:24.999Z,52.11
2023-03-21T17:57:52.302Z,51.97
2023-03-21T18:00:24.145Z,52.10
2023-03-21T18:02:51.868Z,52.14
2023-03-21T18:05:21.594Z,52.13
2023-03-21T18:10:37.404Z,52.04
2023-03-21T18:13:04.884Z,52.37
2023-03-21T18:15:32.935Z,52.52
2023-03-21T18:18:00.229Z,52.55
2023-03-21T18:20:49.840Z,52.38
2023-03-21T18:23:16.090Z,52.39
2023-03-21T18:25:43.489Z,52.48
2023-03-21T18:28:12.628Z,52.30
2023-03-21T18:31:05.426Z,52.48
2023-03-21T18:33:28.624Z,52.48
2023-03-21T18:36:00.005Z,52.57
2023-03-21T18:38:28.773Z,52.52
2023-03-21T18:40:56.669Z,52.53
2023-03-21T18:43:59.648Z,52.42
2023-03-21T18:46:12.726Z,52.78
2023-03-21T18:48:40.415Z,52.59
2023-03-21T18:51:09.592Z,52.57
2023-03-21T18:53:37.337Z,52.66
2023-03-21T18:56:09.946Z,52.80
2023-03-21T18:58:37.653Z,52.78
2023-03-21T19:01:05.456Z,52.88
2023-03-21T19:03:36.939Z,52.95
2023-03-21T19:06:06.504Z,53.01
2023-03-21T19:08:38.354Z,53.06
2023-03-21T19:11:07.081Z,53.22
2023-03-21T19:13:34.866Z,53.23
2023-03-21T19:16:03.054Z,53.48
2023-03-21T19:18:53.361Z,53.61
2023-03-21T19:21:19.572Z,53.79
2023-03-21T19:24:22.923Z,54.15
2023-03-21T19:26:34.677Z,54.17
2023-03-21T19:29:02.063Z,54.43
2023-03-21T19:31:29.463Z,54.54
2023-03-21T19:33:57.196Z,54.61
2023-03-21T19:36:26.362Z,55.25
2023-03-21T19:38:53.902Z,55.14
2023-03-21T19:41:21.226Z,55.36
2023-03-21T19:43:54.821Z,55.15
2023-03-21T19:46:25.017Z,54.85
2023-03-21T19:48:56.940Z,55.06
2023-03-21T19:51:29.869Z,54.90
2023-03-21T19:54:04.570Z,54.71
2023-03-21T19:56:32.110Z,54.71
2023-03-21T19:59:02.624Z,54.73
2023-03-21T20:01:32.458Z,54.73
2023-03-21T20:04:00.691Z,54.69
2023-03-21T20:06:28.300Z,54.52
2023-03-21T20:11:43.551Z,54.77
2023-03-21T20:14:11.047Z,54.54
2023-03-21T20:16:38.378Z,54.38
2023-03-21T20:19:08.960Z,54.45
2023-03-21T20:21:47.699Z,54.43
2023-03-21T20:24:17.643Z,54.50
2023-03-21T20:26:48.597Z,54.43
2023-03-21T20:30:06.943Z,54.31
2023-03-21T20:32:04.379Z,54.29
2023-03-21T20:34:31.761Z,54.40
2023-03-21T20:36:59.146Z,54.33
2023-03-21T20:39:29.455Z,54.15
2023-03-21T20:41:59.414Z,54.47
2023-03-21T20:44:51.961Z,54.48
2023-03-21T20:47:15.105Z,54.45
2023-03-21T20:49:42.391Z,54.44
2023-03-21T20:54:57.553Z,54.33
2023-03-21T20:57:28.722Z,54.30
2023-03-21T20:59:57.612Z,54.27
2023-03-21T21:02:25.272Z,54.37
2023-03-21T21:05:23.745Z,54.36
2023-03-21T21:07:42.753Z,54.23
2023-03-21T21:10:14.175Z,54.69
2023-03-21T21:12:45.133Z,54.45
2023-03-21T21:15:16.687Z,54.52
2023-03-21T21:20:33.800Z,54.40
2023-03-21T21:23:01.264Z,54.42
2023-03-21T21:25:31.905Z,54.50
2023-03-21T21:28:01.699Z,54.42
2023-03-21T21:30:29.794Z,54.50
2023-03-21T21:32:59.691Z,54.41
2023-03-21T21:35:27.134Z,54.34
2023-03-21T21:37:54.895Z,54.42
2023-03-21T21:40:23.364Z,54.35
2023-03-21T21:42:50.981Z,54.54
2023-03-21T21:45:18.979Z,54.58
2023-03-21T21:47:46.566Z,54.36
2023-03-21T21:50:14.255Z,54.51
2023-03-21T21:52:43.868Z,54.48
2023-03-21T21:55:13.098Z,54.25
2023-03-21T21:57:41.050Z,54.31
2023-03-21T22:00:13.707Z,54.26
2023-03-21T22:02:41.571Z,54.09
2023-03-21T22:05:10.518Z,54.11
2023-03-21T22:07:38.225Z,54.42
2023-03-21T22:10:06.643Z,54.17
2023-03-21T22:12:33.997Z,54.39
2023-03-21T22:15:01.558Z,54.27
2023-03-21T22:17:29.039Z,54.13
2023-03-21T22:20:05.753Z,53.74
2023-03-21T22:22:34.992Z,53.78
2023-03-21T22:25:03.709Z,53.87
2023-03-21T22:27:31.190Z,53.87
2023-03-21T22:30:04.727Z,53.82
2023-03-21T22:32:32.456Z,53.88
2023-03-21T22:35:02.316Z,53.80
2023-03-21T22:37:35.499Z,53.86
2023-03-21T22:40:05.504Z,53.83
2023-03-21T22:42:32.680Z,53.70
2023-03-21T22:44:59.942Z,53.80
2023-03-21T22:47:27.395Z,53.85
2023-03-21T22:49:54.615Z,53.74
2023-03-21T22:52:23.013Z,53.81
2023-03-21T22:54:50.419Z,53.58
2023-03-21T22:57:20.124Z,53.65
2023-03-21T22:59:47.385Z,53.52
2023-03-21T23:02:15.696Z,53.45
2023-03-21T23:04:43.066Z,53.31
2023-03-21T23:07:10.699Z,53.47
2023-03-21T23:09:38.038Z,53.38
2023-03-21T23:12:05.469Z,53.53
2023-03-21T23:14:32.767Z,53.41
2023-03-21T23:17:00.232Z,53.38
2023-03-21T23:19:28.784Z,53.61
2023-03-21T23:21:56.263Z,53.62
2023-03-21T23:24:24.495Z,53.22
2023-03-21T23:26:51.871Z,53.62
2023-03-21T23:29:19.228Z,53.42
2023-03-21T23:31:46.866Z,53.30
2023-03-21T23:34:14.367Z,53.35
2023-03-21T23:36:42.057Z,53.37
2023-03-21T23:39:09.920Z,53.36
2023-03-21T23:41:37.350Z,53.07
2023-03-21T23:44:05.230Z,53.24
2023-03-21T23:46:32.825Z,53.32
2023-03-21T23:49:00.417Z,53.20
2023-03-21T23:51:27.841Z,53.21
2023-03-21T23:53:56.617Z,53.19
2023-03-21T23:56:26.170Z,53.21
2023-03-21T23:58:54.125Z,52.84
